トロムソ の空港の天気 - METARとTAF

トロムソ空港 ( ENTC / TOS ) - ノルウェー トロムス県トロムソ
飛行場実況気象(Metar)
観測時間02/17 23:50 CET (02/17 22:50 UTC)
風向・風速東北東 3m/s
視程10km以上
天気現象
全天の8割程度の雲 雲底高度 2190m
気温-4℃
湿度93%
気圧1012hPa
METARENTC 172250Z 06005KT 9999 BKN072 M04/M05 Q1012 RMK WIND 2600FT 13007KT
過去の天気等 Google飛行場航空写真 Wunderground天気予報

過去48時間のMETAR

飛行場予報(TAF)
発表時間: -
17日22時 CET ~ 18日1時 CET に徐々に
風向・風速北北東 5m/s
18日13時 CET ~ 18日19時 CET に一時的に
視程4000m
天気現象弱い雪
全天を覆う雲 鉛直視程 430m
TAF ENTC 1718/1818 21008KT 9999 FEW012 BKN030
BECMG 1721/1724 02010KT
TEMPO 1812/1818 4000 -SN VV014